createdAt,value
2023-05-01T00:01:44.913Z,2.97
2023-05-01T00:06:49.940Z,2.40
2023-05-01T00:11:53.235Z,2.73
2023-05-01T00:16:56.495Z,1.80
2023-05-01T00:22:01.435Z,1.97
2023-05-01T00:27:05.735Z,1.90
2023-05-01T00:32:09.670Z,2.20
2023-05-01T00:37:14.358Z,1.97
2023-05-01T00:42:17.817Z,1.60
2023-05-01T00:47:21.504Z,2.30
2023-05-01T00:52:26.770Z,2.13
2023-05-01T00:57:29.962Z,2.53
2023-05-01T01:02:33.169Z,2.73
2023-05-01T01:07:50.523Z,3.03
2023-05-01T01:13:04.493Z,2.43
2023-05-01T01:18:13.220Z,2.40
2023-05-01T01:23:46.995Z,2.70
2023-05-01T01:29:13.111Z,2.50
2023-05-01T01:34:21.830Z,2.33
2023-05-01T01:39:31.410Z,2.00
2023-05-01T01:44:39.460Z,2.13
2023-05-01T01:49:47.946Z,2.40
2023-05-01T01:54:56.016Z,2.60
2023-05-01T01:59:59.586Z,2.20
2023-05-01T02:05:06.627Z,2.53
2023-05-01T02:10:12.650Z,2.40
2023-05-01T02:15:19.139Z,3.20
2023-05-01T02:20:23.955Z,2.60
2023-05-01T02:25:31.905Z,2.77
2023-05-01T02:30:35.131Z,2.37
2023-05-01T02:35:44.090Z,2.27
2023-05-01T02:40:53.170Z,2.30
2023-05-01T02:45:59.125Z,2.53
2023-05-01T02:51:06.070Z,2.67
2023-05-01T02:56:09.828Z,2.10
2023-05-01T03:01:13.303Z,2.50
2023-05-01T03:06:19.448Z,2.57
2023-05-01T03:11:24.597Z,2.30
2023-05-01T03:16:27.904Z,3.10
2023-05-01T03:21:33.882Z,2.40
2023-05-01T03:26:37.257Z,2.10
2023-05-01T03:31:40.678Z,2.77
2023-05-01T03:36:47.270Z,2.50
2023-05-01T03:41:50.713Z,2.60
2023-05-01T03:47:06.321Z,2.80
2023-05-01T03:52:16.134Z,2.50
2023-05-01T03:57:21.012Z,3.10
2023-05-01T04:02:24.718Z,2.93
2023-05-01T04:07:29.587Z,3.23
2023-05-01T04:12:32.904Z,2.90
2023-05-01T04:17:36.826Z,3.67
2023-05-01T04:22:41.607Z,2.90
2023-05-01T04:27:44.821Z,4.00
2023-05-01T04:32:49.459Z,3.80
2023-05-01T04:37:54.316Z,3.90
2023-05-01T04:42:57.818Z,3.90
2023-05-01T04:48:01.357Z,3.90
2023-05-01T04:53:06.069Z,5.20
2023-05-01T04:58:11.089Z,5.33
2023-05-01T05:03:14.619Z,4.50
2023-05-01T05:08:19.489Z,4.50
2023-05-01T05:13:26.629Z,4.77
2023-05-01T05:18:35.549Z,4.97
2023-05-01T05:23:41.175Z,4.57
2023-05-01T05:28:45.532Z,5.23
2023-05-01T05:33:48.776Z,4.50
2023-05-01T05:38:54.481Z,5.40
2023-05-01T05:43:57.731Z,5.10
2023-05-01T05:49:01.634Z,5.50
2023-05-01T05:54:07.931Z,6.47
2023-05-01T05:59:12.870Z,6.33
2023-05-01T06:04:17.038Z,6.20
2023-05-01T06:09:22.982Z,6.70
2023-05-01T06:14:26.458Z,5.97
2023-05-01T06:19:29.664Z,6.47
2023-05-01T06:24:43.495Z,6.20
2023-05-01T06:29:47.878Z,5.83
2023-05-01T06:34:51.641Z,5.20
2023-05-01T06:39:57.213Z,5.77
2023-05-01T06:45:01.160Z,5.67
2023-05-01T06:50:06.025Z,5.33
2023-05-01T06:55:12.466Z,5.30
2023-05-01T07:00:17.675Z,4.60
2023-05-01T07:05:21.253Z,4.83
2023-05-01T07:10:26.109Z,5.20
2023-05-01T07:15:29.841Z,5.40
2023-05-01T07:20:33.045Z,6.10
2023-05-01T07:25:38.374Z,5.83
2023-05-01T07:30:41.872Z,5.10
2023-05-01T07:35:45.260Z,4.60
2023-05-01T07:40:53.497Z,4.20
2023-05-01T07:45:58.870Z,3.53
2023-05-01T07:51:04.398Z,3.60
2023-05-01T07:56:10.170Z,3.50
2023-05-01T08:01:13.583Z,3.60
2023-05-01T08:06:17.107Z,3.07
2023-05-01T08:11:22.164Z,2.63
2023-05-01T08:16:25.550Z,2.73
2023-05-01T08:21:28.967Z,3.20
2023-05-01T08:26:33.681Z,1.90
2023-05-01T08:31:38.064Z,1.60
2023-05-01T08:36:41.673Z,1.70
2023-05-01T08:41:48.553Z,1.43
2023-05-01T08:47:01.409Z,2.23
2023-05-01T08:52:07.713Z,1.77
2023-05-01T08:57:13.684Z,1.50
2023-05-01T09:02:17.228Z,1.57
2023-05-01T09:07:20.568Z,1.30
2023-05-01T09:12:27.290Z,1.87
2023-05-01T09:17:31.904Z,1.30
2023-05-01T09:22:36.577Z,1.20
2023-05-01T09:27:41.502Z,1.50
2023-05-01T09:32:44.762Z,1.43
2023-05-01T09:37:51.286Z,1.60
2023-05-01T09:42:56.531Z,1.97
2023-05-01T09:48:11.739Z,1.63
2023-05-01T09:53:15.982Z,1.10
2023-05-01T09:58:29.505Z,1.57
2023-05-01T10:03:34.032Z,1.53
2023-05-01T10:08:48.176Z,1.57
2023-05-01T10:14:09.464Z,2.13
2023-05-01T10:19:13.963Z,1.30
2023-05-01T10:24:18.417Z,1.63
2023-05-01T10:29:25.663Z,2.03
2023-05-01T10:34:30.089Z,2.30
2023-05-01T10:39:34.456Z,1.57
2023-05-01T10:44:40.209Z,1.80
2023-05-01T10:50:05.979Z,2.20
2023-05-01T10:55:34.806Z,2.00
2023-05-01T11:00:39.480Z,1.60
2023-05-01T11:06:06.712Z,2.10
2023-05-01T11:11:49.480Z,2.17
2023-05-01T11:16:55.263Z,3.10
2023-05-01T11:21:58.845Z,1.80
2023-05-01T11:27:02.964Z,1.83
2023-05-01T11:32:09.523Z,2.20
2023-05-01T11:37:12.784Z,1.50
2023-05-01T11:42:16.174Z,1.80
2023-05-01T11:47:20.931Z,1.90
2023-05-01T11:52:24.478Z,2.00
2023-05-01T11:57:27.665Z,2.20
2023-05-01T12:02:32.515Z,2.40
2023-05-01T12:07:37.578Z,2.50
2023-05-01T12:12:41.381Z,2.03
2023-05-01T12:17:48.340Z,2.47
2023-05-01T12:22:51.830Z,2.30
2023-05-01T12:27:55.844Z,2.40
2023-05-01T12:33:04.196Z,2.30
2023-05-01T12:38:13.861Z,2.53
2023-05-01T12:43:17.587Z,2.13
2023-05-01T12:48:22.870Z,2.70
2023-05-01T12:53:28.074Z,2.53
2023-05-01T12:58:38.378Z,3.70
2023-05-01T13:03:45.161Z,3.47
2023-05-01T13:08:48.452Z,3.33
2023-05-01T13:13:51.719Z,3.10
2023-05-01T13:18:56.389Z,3.03
2023-05-01T13:24:00.852Z,2.97
2023-05-01T13:29:05.900Z,3.47
2023-05-01T13:34:10.711Z,3.60
2023-05-01T13:39:21.201Z,3.80
2023-05-01T13:44:24.780Z,3.50
2023-05-01T13:49:29.516Z,3.60
2023-05-01T13:54:32.984Z,3.50
2023-05-01T13:59:40.936Z,3.40
2023-05-01T14:04:45.715Z,2.50
2023-05-01T14:09:57.271Z,4.00
2023-05-01T14:15:01.772Z,3.07
2023-05-01T14:20:09.873Z,3.90
2023-05-01T14:25:23.651Z,3.77
2023-05-01T14:30:30.333Z,3.60
2023-05-01T14:35:36.350Z,3.17
2023-05-01T14:40:42.020Z,8.37
2023-05-01T14:45:46.608Z,3.33
2023-05-01T14:50:51.708Z,3.13
2023-05-01T14:55:55.314Z,4.27
2023-05-01T15:00:58.783Z,3.30
2023-05-01T15:06:04.223Z,4.13
2023-05-01T15:11:07.780Z,3.10
2023-05-01T15:16:11.390Z,3.20
2023-05-01T15:21:16.099Z,3.60
2023-05-01T15:26:19.360Z,4.37
2023-05-01T15:31:22.898Z,4.50
2023-05-01T15:36:27.636Z,3.90
2023-05-01T15:41:31.092Z,2.80
2023-05-01T15:46:35.681Z,4.53
2023-05-01T15:51:41.310Z,2.90
2023-05-01T15:56:45.473Z,3.07
2023-05-01T16:01:49.121Z,3.60
2023-05-01T16:06:53.851Z,3.57
2023-05-01T16:11:57.196Z,3.13
2023-05-01T16:17:00.570Z,3.53
2023-05-01T16:22:07.007Z,3.60
2023-05-01T16:27:13.628Z,3.60
2023-05-01T16:32:18.313Z,3.77
2023-05-01T16:37:26.913Z,4.93
2023-05-01T16:42:30.328Z,4.30
2023-05-01T16:47:33.623Z,5.17
2023-05-01T16:52:39.405Z,4.20
2023-05-01T16:57:44.229Z,2.80
2023-05-01T17:02:49.626Z,3.10
2023-05-01T17:07:54.377Z,4.13
2023-05-01T17:12:58.223Z,3.87
2023-05-01T17:18:01.709Z,3.50
2023-05-01T17:23:06.332Z,3.00
2023-05-01T17:28:09.752Z,2.87
2023-05-01T17:33:13.046Z,3.33
2023-05-01T17:38:17.996Z,3.37
2023-05-01T17:43:21.709Z,3.30
2023-05-01T17:48:24.990Z,3.30
2023-05-01T17:53:29.701Z,4.20
2023-05-01T17:58:33.284Z,4.03
2023-05-01T18:03:36.781Z,4.23
2023-05-01T18:08:41.827Z,3.10
2023-05-01T18:13:48.052Z,3.60
2023-05-01T18:18:51.426Z,2.70
2023-05-01T18:23:56.163Z,3.00
2023-05-01T18:28:59.728Z,2.30
2023-05-01T18:34:03.646Z,8.70
2023-05-01T18:39:09.404Z,3.63
2023-05-01T18:44:13.771Z,2.53
2023-05-01T18:49:21.049Z,2.63
2023-05-01T18:54:26.675Z,3.20
2023-05-01T18:59:32.965Z,2.33
2023-05-01T19:04:49.150Z,2.97
2023-05-01T19:09:54.429Z,2.23
2023-05-01T19:15:01.360Z,2.90
2023-05-01T19:20:06.233Z,2.70
2023-05-01T19:25:11.606Z,2.70
2023-05-01T19:30:15.231Z,2.73
2023-05-01T19:35:18.519Z,2.43
2023-05-01T19:40:23.588Z,2.83
2023-05-01T19:45:27.261Z,2.73
2023-05-01T19:50:32.252Z,2.67
2023-05-01T19:55:40.642Z,2.50
2023-05-01T20:00:44.290Z,2.37
2023-05-01T20:05:47.650Z,2.70
2023-05-01T20:10:52.928Z,2.80
2023-05-01T20:15:56.402Z,2.30
2023-05-01T20:20:59.643Z,1.90
2023-05-01T20:26:04.932Z,2.70
2023-05-01T20:31:08.316Z,2.60
2023-05-01T20:36:12.324Z,2.43
2023-05-01T20:41:17.109Z,2.70
2023-05-01T20:46:20.485Z,2.60
2023-05-01T20:51:24.060Z,2.70
2023-05-01T20:56:28.712Z,2.50
2023-05-01T21:01:32.861Z,2.37
2023-05-01T21:06:36.669Z,2.30
2023-05-01T21:11:42.333Z,2.30
2023-05-01T21:16:45.693Z,2.67
2023-05-01T21:21:49.057Z,2.73
2023-05-01T21:26:55.093Z,2.50
2023-05-01T21:31:58.469Z,2.83
2023-05-01T21:37:02.039Z,2.77
2023-05-01T21:42:06.815Z,2.20
2023-05-01T21:47:10.742Z,2.67
2023-05-01T21:52:14.875Z,2.70
2023-05-01T21:57:19.518Z,2.60
2023-05-01T22:02:22.958Z,2.77
2023-05-01T22:07:26.840Z,3.13
2023-05-01T22:12:31.711Z,2.60
2023-05-01T22:17:34.958Z,2.80
2023-05-01T22:22:40.990Z,2.60
2023-05-01T22:27:45.939Z,2.87
2023-05-01T22:32:49.079Z,2.33
2023-05-01T22:37:52.387Z,3.10
2023-05-01T22:42:57.154Z,2.70
2023-05-01T22:48:00.731Z,2.37
2023-05-01T22:53:04.276Z,2.90
2023-05-01T22:58:09.089Z,7.20
2023-05-01T23:03:12.411Z,10.60
2023-05-01T23:08:15.877Z,7.90
2023-05-01T23:13:23.590Z,6.67
2023-05-01T23:18:34.296Z,5.90
2023-05-01T23:23:42.944Z,4.30
2023-05-01T23:28:47.633Z,3.13
2023-05-01T23:33:50.928Z,3.57
2023-05-01T23:38:54.602Z,3.23
2023-05-01T23:44:00.374Z,3.30
2023-05-01T23:49:03.897Z,3.60
2023-05-01T23:54:07.307Z,3.60
2023-05-01T23:59:11.942Z,3.80
